createdAt,value
2023-03-12T00:01:34.500Z,3.03
2023-03-12T00:04:03.416Z,1.97
2023-03-12T00:06:31.619Z,7.97
2023-03-12T00:09:01.984Z,4.60
2023-03-12T00:11:29.811Z,0.93
2023-03-12T00:14:00.143Z,3.73
2023-03-12T00:16:28.375Z,2.03
2023-03-12T00:18:57.042Z,4.03
2023-03-12T00:21:25.535Z,2.00
2023-03-12T00:23:53.895Z,2.27
2023-03-12T00:26:23.508Z,1.33
2023-03-12T00:28:51.986Z,1.77
2023-03-12T00:31:21.590Z,1.33
2023-03-12T00:33:50.484Z,0.70
2023-03-12T00:36:18.765Z,0.80
2023-03-12T00:38:46.778Z,3.47
2023-03-12T00:41:14.549Z,1.80
2023-03-12T00:43:43.722Z,2.33
2023-03-12T00:46:11.507Z,1.80
2023-03-12T00:48:39.427Z,0.80
2023-03-12T00:51:07.229Z,1.10
2023-03-12T00:53:34.948Z,3.20
2023-03-12T00:56:03.203Z,3.17
2023-03-12T00:58:30.920Z,0.97
2023-03-12T01:01:00.108Z,1.43
2023-03-12T01:03:27.904Z,2.27
2023-03-12T01:05:55.645Z,1.53
2023-03-12T01:08:24.345Z,3.47
2023-03-12T01:10:52.774Z,2.63
2023-03-12T01:13:21.040Z,1.47
2023-03-12T01:15:48.812Z,5.77
2023-03-12T01:18:17.938Z,2.80
2023-03-12T01:20:45.703Z,4.37
2023-03-12T01:23:13.510Z,3.23
2023-03-12T01:25:42.191Z,1.63
2023-03-12T01:28:09.947Z,1.87
2023-03-12T01:30:37.701Z,2.10
2023-03-12T01:33:05.682Z,1.80
2023-03-12T01:35:39.478Z,2.93
2023-03-12T01:38:07.527Z,9.27
2023-03-12T01:40:36.408Z,2.30
2023-03-12T01:43:25.537Z,1.03
2023-03-12T01:46:05.912Z,2.40
2023-03-12T01:48:39.344Z,2.63
2023-03-12T01:51:10.204Z,0.83
2023-03-12T01:53:39.489Z,3.60
2023-03-12T01:56:08.572Z,2.63
2023-03-12T01:58:38.909Z,3.43
2023-03-12T02:01:06.893Z,5.33
2023-03-12T02:03:36.455Z,2.00
2023-03-12T02:06:11.219Z,1.10
2023-03-12T02:08:42.506Z,1.60
2023-03-12T02:11:10.299Z,1.80
2023-03-12T02:13:38.462Z,0.93
2023-03-12T02:16:07.180Z,0.97
2023-03-12T02:18:36.156Z,1.27
2023-03-12T02:21:14.952Z,3.23
2023-03-12T02:23:48.909Z,1.00
2023-03-12T02:26:20.644Z,2.43
2023-03-12T02:28:50.074Z,2.43
2023-03-12T02:31:21.740Z,0.43
2023-03-12T02:33:49.546Z,2.70
2023-03-12T02:36:17.259Z,1.80
2023-03-12T02:38:47.155Z,3.27
2023-03-12T02:41:19.677Z,1.90
2023-03-12T02:43:50.468Z,1.33
2023-03-12T02:46:18.466Z,5.37
2023-03-12T02:48:46.206Z,0.63
2023-03-12T02:51:13.923Z,7.07
2023-03-12T02:53:41.644Z,8.53
2023-03-12T02:56:09.462Z,6.80
2023-03-12T02:58:38.555Z,6.07
2023-03-12T03:01:06.370Z,7.60
2023-03-12T03:03:34.109Z,3.03
2023-03-12T03:06:01.860Z,1.07
2023-03-12T03:08:29.572Z,1.50
2023-03-12T03:10:57.394Z,0.53
2023-03-12T03:13:25.089Z,3.50
2023-03-12T03:15:54.260Z,2.30
2023-03-12T03:18:21.997Z,2.37
2023-03-12T03:20:56.559Z,0.47
2023-03-12T03:23:24.828Z,1.80
2023-03-12T03:25:53.602Z,1.03
2023-03-12T03:28:21.430Z,2.23
2023-03-12T03:30:49.718Z,1.10
2023-03-12T03:33:18.838Z,5.53
2023-03-12T03:35:46.605Z,4.27
2023-03-12T03:38:14.319Z,2.30
2023-03-12T03:40:42.059Z,4.93
2023-03-12T03:43:09.790Z,4.13
2023-03-12T03:45:37.511Z,2.63
2023-03-12T03:48:06.119Z,3.63
2023-03-12T03:50:35.916Z,5.30
2023-03-12T03:53:03.637Z,3.13
2023-03-12T03:55:31.360Z,3.70
2023-03-12T03:57:59.096Z,1.80
2023-03-12T04:00:26.801Z,2.63
2023-03-12T04:02:55.457Z,3.80
2023-03-12T04:05:23.529Z,2.10
2023-03-12T04:07:53.412Z,1.83
2023-03-12T04:10:21.632Z,5.63
2023-03-12T04:12:49.618Z,4.83
2023-03-12T04:15:17.601Z,3.10
2023-03-12T04:17:45.513Z,0.80
2023-03-12T04:20:14.201Z,4.07
2023-03-12T04:22:42.285Z,6.60
2023-03-12T04:25:12.006Z,1.60
2023-03-12T04:27:39.802Z,7.10
2023-03-12T04:30:08.569Z,2.53
2023-03-12T04:32:36.326Z,2.67
2023-03-12T04:35:04.209Z,3.60
2023-03-12T04:37:34.329Z,5.50
2023-03-12T04:40:02.548Z,5.20
2023-03-12T04:42:31.655Z,3.10
2023-03-12T04:44:59.348Z,1.87
2023-03-12T04:47:27.082Z,1.83
2023-03-12T04:49:54.783Z,2.93
2023-03-12T04:52:22.527Z,8.13
2023-03-12T04:54:51.078Z,3.30
2023-03-12T04:57:18.834Z,2.10
2023-03-12T04:59:47.968Z,4.53
2023-03-12T05:02:15.752Z,1.43
2023-03-12T05:04:43.468Z,1.93
2023-03-12T05:07:11.228Z,2.93
2023-03-12T05:09:38.972Z,2.20
2023-03-12T05:12:07.521Z,1.20
2023-03-12T05:14:35.244Z,2.40
2023-03-12T05:17:05.272Z,4.13
2023-03-12T05:19:32.976Z,2.27
2023-03-12T05:22:00.685Z,2.17
2023-03-12T05:24:28.585Z,2.40
2023-03-12T05:26:56.288Z,2.60
2023-03-12T05:29:24.126Z,2.50
2023-03-12T05:31:51.962Z,4.23
2023-03-12T05:34:21.073Z,2.33
2023-03-12T05:36:48.761Z,4.63
2023-03-12T05:39:16.508Z,7.10
2023-03-12T05:41:44.205Z,3.40
2023-03-12T05:44:13.446Z,3.63
2023-03-12T05:46:41.177Z,1.70
2023-03-12T05:49:09.138Z,3.70
2023-03-12T05:51:38.516Z,4.20
2023-03-12T05:54:06.285Z,3.57
2023-03-12T05:56:33.974Z,5.50
2023-03-12T05:59:01.694Z,2.40
2023-03-12T06:01:31.743Z,5.43
2023-03-12T06:03:59.681Z,2.13
2023-03-12T06:06:27.525Z,4.67
2023-03-12T06:08:56.613Z,8.37
2023-03-12T06:11:24.311Z,3.50
2023-03-12T06:13:52.260Z,4.53
2023-03-12T06:16:21.960Z,4.13
2023-03-12T06:18:49.890Z,4.30
2023-03-12T06:21:19.955Z,3.83
2023-03-12T06:23:47.984Z,2.57
2023-03-12T06:26:17.583Z,7.97
2023-03-12T06:28:46.704Z,5.87
2023-03-12T06:31:15.017Z,4.50
2023-03-12T06:33:43.232Z,5.17
2023-03-12T06:36:11.859Z,8.93
2023-03-12T06:38:40.387Z,3.73
2023-03-12T06:41:10.117Z,4.73
2023-03-12T06:43:40.478Z,4.60
2023-03-12T06:46:10.169Z,3.80
2023-03-12T06:48:41.204Z,2.83
2023-03-12T06:51:09.629Z,2.83
2023-03-12T06:53:37.731Z,3.73
2023-03-12T06:56:07.632Z,3.07
2023-03-12T06:58:35.365Z,2.47
2023-03-12T07:01:05.265Z,4.10
2023-03-12T07:03:32.974Z,6.50
2023-03-12T07:06:00.789Z,3.80
2023-03-12T07:08:31.073Z,7.20
2023-03-12T07:11:02.235Z,3.77
2023-03-12T07:13:30.161Z,5.33
2023-03-12T07:15:58.046Z,6.47
2023-03-12T07:18:27.536Z,4.10
2023-03-12T07:20:55.398Z,5.27
2023-03-12T07:23:23.709Z,2.17
2023-03-12T07:25:52.040Z,2.53
2023-03-12T07:28:20.794Z,3.20
2023-03-12T07:30:50.731Z,5.67
2023-03-12T07:33:21.730Z,3.97
2023-03-12T07:35:51.918Z,1.50
2023-03-12T07:38:20.022Z,2.87
2023-03-12T07:40:51.951Z,3.07
2023-03-12T07:43:21.250Z,2.13
2023-03-12T07:45:49.809Z,3.70
2023-03-12T07:48:19.790Z,1.90
2023-03-12T07:50:48.613Z,3.43
2023-03-12T07:53:18.465Z,3.23
2023-03-12T07:55:48.222Z,3.30
2023-03-12T07:58:16.629Z,6.60
2023-03-12T08:00:44.939Z,2.37
2023-03-12T08:03:13.279Z,5.33
2023-03-12T08:05:41.567Z,1.30
2023-03-12T08:08:09.945Z,2.20
2023-03-12T08:10:39.164Z,2.20
2023-03-12T08:13:06.940Z,2.87
2023-03-12T08:15:34.927Z,3.67
2023-03-12T08:18:02.655Z,2.30
2023-03-12T08:20:30.641Z,1.50
2023-03-12T08:22:58.365Z,2.90
2023-03-12T08:25:26.104Z,6.37
2023-03-12T08:27:55.269Z,5.37
2023-03-12T08:30:23.177Z,3.73
2023-03-12T08:32:50.927Z,2.67
2023-03-12T08:35:18.922Z,1.60
2023-03-12T08:37:46.632Z,4.73
2023-03-12T08:40:15.209Z,1.67
2023-03-12T08:42:44.197Z,1.70
2023-03-12T08:45:15.761Z,3.47
2023-03-12T08:47:44.591Z,3.03
2023-03-12T08:50:14.691Z,1.80
2023-03-12T08:52:42.466Z,3.13
2023-03-12T08:55:11.181Z,4.33
2023-03-12T08:57:39.854Z,6.30
2023-03-12T09:00:14.884Z,1.77
2023-03-12T09:02:45.975Z,1.60
2023-03-12T09:05:14.112Z,3.30
2023-03-12T09:07:42.010Z,1.33
2023-03-12T09:10:10.521Z,4.00
2023-03-12T09:12:38.357Z,2.70
2023-03-12T09:15:07.360Z,1.80
2023-03-12T09:17:35.242Z,2.70
2023-03-12T09:20:06.980Z,1.90
2023-03-12T09:22:36.810Z,3.10
2023-03-12T09:25:04.774Z,5.30
2023-03-12T09:27:36.353Z,3.40
2023-03-12T09:30:04.193Z,4.13
2023-03-12T09:32:32.007Z,1.67
2023-03-12T09:34:59.736Z,1.90
2023-03-12T09:37:29.268Z,3.20
2023-03-12T09:39:57.171Z,1.70
2023-03-12T09:42:26.686Z,2.80
2023-03-12T09:44:58.321Z,2.03
2023-03-12T09:47:30.613Z,3.10
2023-03-12T09:50:04.275Z,2.37
2023-03-12T09:52:37.381Z,1.57
2023-03-12T09:55:15.037Z,2.30
2023-03-12T09:57:44.241Z,3.57
2023-03-12T10:00:16.205Z,1.83
2023-03-12T10:03:06.609Z,4.67
2023-03-12T10:05:39.444Z,3.90
2023-03-12T10:08:24.651Z,1.77
2023-03-12T10:11:04.068Z,1.90
2023-03-12T10:13:55.306Z,2.10
2023-03-12T10:16:35.456Z,1.77
2023-03-12T10:19:22.163Z,1.23
2023-03-12T10:21:56.849Z,3.93
2023-03-12T10:24:38.427Z,2.60
2023-03-12T10:27:13.264Z,1.93
2023-03-12T10:29:45.057Z,1.37
2023-03-12T10:32:17.563Z,3.87
2023-03-12T10:34:47.790Z,5.07
2023-03-12T10:37:21.727Z,3.33
2023-03-12T10:39:51.614Z,3.47
2023-03-12T10:42:22.399Z,1.93
2023-03-12T10:44:53.306Z,2.60
2023-03-12T10:47:34.979Z,2.10
2023-03-12T10:50:18.201Z,2.67
2023-03-12T10:52:47.309Z,2.53
2023-03-12T10:55:23.088Z,3.57
2023-03-12T10:57:51.845Z,3.90
2023-03-12T11:00:22.013Z,1.97
2023-03-12T11:02:58.813Z,1.73
2023-03-12T11:05:30.578Z,3.07
2023-03-12T11:08:00.110Z,3.10
2023-03-12T11:10:41.928Z,1.30
2023-03-12T11:13:33.564Z,3.70
2023-03-12T11:16:03.298Z,1.93
2023-03-12T11:18:33.635Z,2.70
2023-03-12T11:21:17.442Z,1.87
2023-03-12T11:23:48.375Z,2.50
2023-03-12T11:26:20.599Z,2.63
2023-03-12T11:28:50.838Z,2.40
2023-03-12T11:31:25.444Z,2.20
2023-03-12T11:33:55.843Z,1.03
2023-03-12T11:36:35.566Z,1.37
2023-03-12T11:39:12.174Z,3.17
2023-03-12T11:42:00.152Z,3.67
2023-03-12T11:44:32.475Z,2.33
2023-03-12T11:47:17.688Z,3.57
2023-03-12T11:50:17.975Z,3.30
2023-03-12T11:53:02.147Z,2.53
2023-03-12T11:55:40.910Z,1.57
2023-03-12T11:58:27.679Z,3.80
2023-03-12T12:01:03.615Z,1.90
2023-03-12T12:03:45.579Z,1.63
2023-03-12T12:06:23.280Z,3.67
2023-03-12T12:09:05.308Z,1.10
2023-03-12T12:11:47.049Z,1.10
2023-03-12T12:14:29.590Z,1.50
2023-03-12T12:17:10.886Z,2.17
2023-03-12T12:19:53.880Z,0.90
2023-03-12T12:22:35.956Z,3.57
2023-03-12T12:25:26.420Z,1.20
2023-03-12T12:28:08.718Z,1.97
2023-03-12T12:30:51.539Z,1.40
2023-03-12T12:33:29.533Z,1.03
2023-03-12T12:35:57.973Z,2.73
2023-03-12T12:38:30.902Z,2.53
2023-03-12T12:41:04.736Z,1.43
2023-03-12T12:43:36.972Z,1.30
2023-03-12T12:46:10.155Z,2.87
2023-03-12T12:48:41.732Z,1.60
2023-03-12T12:51:10.834Z,1.30
2023-03-12T12:53:45.843Z,1.37
2023-03-12T12:56:20.718Z,1.60
2023-03-12T12:59:25.146Z,1.70
2023-03-12T13:01:56.431Z,2.70
2023-03-12T13:04:28.344Z,2.23
2023-03-12T13:07:03.596Z,3.27
2023-03-12T13:09:43.424Z,1.83
2023-03-12T13:12:19.705Z,2.90
2023-03-12T13:14:49.251Z,4.00
2023-03-12T13:17:28.026Z,2.87
2023-03-12T13:20:01.960Z,3.97
2023-03-12T13:22:48.385Z,2.27
2023-03-12T13:25:27.831Z,3.17
2023-03-12T13:28:00.833Z,4.70
2023-03-12T13:30:47.528Z,4.87
2023-03-12T13:33:18.282Z,4.40
2023-03-12T13:36:02.977Z,2.30
2023-03-12T13:38:38.616Z,2.33
2023-03-12T13:41:09.713Z,2.83
2023-03-12T13:43:51.188Z,4.73
2023-03-12T13:46:42.667Z,4.80
2023-03-12T13:49:18.923Z,2.33
2023-03-12T13:51:58.903Z,3.93
2023-03-12T13:54:30.703Z,1.87
2023-03-12T13:57:04.304Z,1.70
2023-03-12T13:59:33.545Z,3.23
2023-03-12T14:02:06.922Z,3.03
2023-03-12T14:04:41.264Z,0.70
2023-03-12T14:07:28.761Z,1.00
2023-03-12T14:10:09.037Z,2.37
2023-03-12T14:12:45.553Z,2.13
2023-03-12T14:15:31.351Z,1.03
2023-03-12T14:18:03.494Z,1.10
2023-03-12T14:20:38.302Z,2.53
2023-03-12T14:23:10.187Z,1.10
2023-03-12T14:25:40.992Z,0.90
2023-03-12T14:28:14.700Z,1.33
2023-03-12T14:30:49.154Z,1.40
2023-03-12T14:33:17.793Z,1.63
2023-03-12T14:35:52.290Z,2.20
2023-03-12T14:38:27.282Z,2.00
2023-03-12T14:41:01.292Z,2.97
2023-03-12T14:43:30.912Z,2.03
2023-03-12T14:46:00.850Z,2.37
2023-03-12T14:48:30.836Z,4.10
2023-03-12T14:51:02.337Z,1.90
2023-03-12T14:53:31.752Z,2.07
2023-03-12T14:56:05.395Z,4.30
2023-03-12T14:58:34.289Z,2.77
2023-03-12T15:01:04.720Z,2.67
2023-03-12T15:03:37.691Z,1.70
2023-03-12T15:06:15.334Z,2.10
2023-03-12T15:08:44.890Z,2.33
2023-03-12T15:11:13.694Z,2.30
2023-03-12T15:13:41.524Z,1.60
2023-03-12T15:16:11.701Z,1.87
2023-03-12T15:18:39.716Z,1.67
2023-03-12T15:21:08.920Z,3.90
2023-03-12T15:23:38.631Z,1.73
2023-03-12T15:26:15.098Z,4.03
2023-03-12T15:28:43.866Z,1.80
2023-03-12T15:31:15.042Z,1.63
2023-03-12T15:33:44.348Z,1.80
2023-03-12T15:36:29.239Z,1.80
2023-03-12T15:39:01.178Z,1.43
2023-03-12T15:41:41.460Z,2.97
2023-03-12T15:44:19.525Z,1.80
2023-03-12T15:46:49.382Z,1.83
2023-03-12T15:49:24.061Z,1.47
2023-03-12T15:52:06.221Z,1.70
2023-03-12T15:54:35.153Z,1.60
2023-03-12T15:57:23.795Z,2.00
2023-03-12T16:00:09.538Z,2.23
2023-03-12T16:02:38.653Z,1.77
2023-03-12T16:05:08.182Z,1.40
2023-03-12T16:07:37.358Z,1.63
2023-03-12T16:10:05.975Z,1.93
2023-03-12T16:12:34.015Z,1.43
2023-03-12T16:15:01.712Z,2.27
2023-03-12T16:17:30.829Z,1.47
2023-03-12T16:19:58.761Z,5.67
2023-03-12T16:22:26.571Z,2.73
2023-03-12T16:24:55.664Z,1.60
2023-03-12T16:27:32.078Z,3.13
2023-03-12T16:30:00.750Z,2.57
2023-03-12T16:32:28.551Z,2.90
2023-03-12T16:34:56.779Z,2.30
2023-03-12T16:37:25.588Z,2.20
2023-03-12T16:39:53.354Z,1.87
2023-03-12T16:42:22.576Z,2.07
2023-03-12T16:44:50.379Z,2.70
2023-03-12T16:47:18.307Z,1.90
2023-03-12T16:49:46.038Z,3.03
2023-03-12T16:52:18.179Z,2.83
2023-03-12T16:54:45.922Z,4.07
2023-03-12T16:57:23.344Z,4.27
2023-03-12T16:59:52.556Z,2.97
2023-03-12T17:02:21.329Z,4.03
2023-03-12T17:04:51.053Z,1.93
2023-03-12T17:07:19.012Z,2.73
2023-03-12T17:09:46.727Z,2.80
2023-03-12T17:12:20.816Z,3.67
2023-03-12T17:14:49.737Z,2.90
2023-03-12T17:17:18.895Z,2.37
2023-03-12T17:19:46.599Z,2.73
2023-03-12T17:22:14.416Z,4.47
2023-03-12T17:24:42.259Z,2.77
2023-03-12T17:27:10.028Z,2.70
2023-03-12T17:29:37.859Z,3.77
2023-03-12T17:32:05.872Z,5.43
2023-03-12T17:34:37.155Z,3.90
2023-03-12T17:37:04.970Z,3.57
2023-03-12T17:39:32.807Z,3.70
2023-03-12T17:42:00.594Z,3.50
2023-03-12T17:44:32.665Z,4.57
2023-03-12T17:47:00.451Z,3.87
2023-03-12T17:49:28.832Z,3.70
2023-03-12T17:51:58.506Z,4.13
2023-03-12T17:54:26.308Z,4.73
2023-03-12T17:56:54.027Z,7.30
2023-03-12T17:59:21.831Z,4.17
2023-03-12T18:01:49.553Z,4.83
2023-03-12T18:04:17.318Z,5.03
2023-03-12T18:06:45.061Z,3.97
2023-03-12T18:09:14.306Z,3.73
2023-03-12T18:11:42.170Z,4.07
2023-03-12T18:14:09.892Z,4.20
2023-03-12T18:16:37.804Z,4.83
2023-03-12T18:19:05.736Z,3.93
2023-03-12T18:21:33.506Z,3.63
2023-03-12T18:24:11.819Z,5.57
2023-03-12T18:26:42.555Z,4.30
2023-03-12T18:29:10.243Z,4.27
2023-03-12T18:31:38.204Z,3.33
2023-03-12T18:34:05.976Z,3.97
2023-03-12T18:36:33.713Z,4.60
2023-03-12T18:39:04.646Z,5.27
2023-03-12T18:41:33.053Z,4.53
2023-03-12T18:44:02.350Z,6.10
2023-03-12T18:46:30.494Z,6.00
2023-03-12T18:48:58.321Z,6.10
2023-03-12T18:51:26.030Z,6.10
2023-03-12T18:53:53.737Z,5.07
2023-03-12T18:56:21.560Z,6.03
2023-03-12T18:58:49.331Z,5.33
2023-03-12T19:01:18.726Z,4.13
2023-03-12T19:03:46.697Z,6.10
2023-03-12T19:06:16.464Z,5.83
2023-03-12T19:08:44.780Z,5.80
2023-03-12T19:11:14.263Z,4.83
2023-03-12T19:13:42.612Z,5.70
2023-03-12T19:16:12.236Z,6.03
2023-03-12T19:18:41.456Z,5.53
2023-03-12T19:21:09.271Z,6.17
2023-03-12T19:23:37.035Z,5.67
2023-03-12T19:26:05.108Z,5.83
2023-03-12T19:28:33.320Z,4.90
2023-03-12T19:31:01.783Z,5.83
2023-03-12T19:33:29.663Z,4.67
2023-03-12T19:35:58.944Z,5.17
2023-03-12T19:38:26.902Z,6.07
2023-03-12T19:40:56.828Z,7.23
2023-03-12T19:43:25.184Z,5.33
2023-03-12T19:45:54.804Z,6.47
2023-03-12T19:48:23.200Z,6.10
2023-03-12T19:50:51.577Z,6.57
2023-03-12T19:53:20.737Z,7.80
2023-03-12T19:55:49.264Z,9.47
2023-03-12T19:58:17.906Z,9.77
2023-03-12T20:00:46.114Z,8.30
2023-03-12T20:03:13.909Z,9.43
2023-03-12T20:05:44.226Z,9.27
2023-03-12T20:08:12.427Z,7.57
2023-03-12T20:10:41.542Z,8.60
2023-03-12T20:13:12.914Z,8.20
2023-03-12T20:15:40.806Z,8.33
2023-03-12T20:18:08.518Z,10.50
2023-03-12T20:20:36.328Z,8.27
2023-03-12T20:23:04.057Z,5.07
2023-03-12T20:25:31.836Z,8.73
2023-03-12T20:28:01.073Z,11.33
2023-03-12T20:30:28.849Z,8.27
2023-03-12T20:32:56.616Z,9.13
2023-03-12T20:35:24.532Z,9.80
2023-03-12T20:37:52.315Z,11.47
2023-03-12T20:40:20.288Z,9.57
2023-03-12T20:42:47.986Z,11.30
2023-03-12T20:45:17.186Z,8.60
2023-03-12T20:47:44.954Z,9.13
2023-03-12T20:50:12.887Z,7.77
2023-03-12T20:52:40.638Z,13.03
2023-03-12T20:55:09.275Z,10.93
2023-03-12T20:57:36.988Z,12.90
2023-03-12T21:00:05.545Z,11.70
2023-03-12T21:02:35.121Z,10.73
2023-03-12T21:05:02.937Z,12.53
2023-03-12T21:07:30.687Z,12.60
2023-03-12T21:09:58.434Z,12.47
2023-03-12T21:12:26.243Z,12.30
2023-03-12T21:14:54.018Z,14.13
2023-03-12T21:17:21.971Z,11.20
2023-03-12T21:19:51.030Z,12.67
2023-03-12T21:22:18.763Z,9.63
2023-03-12T21:24:46.749Z,11.77
2023-03-12T21:27:14.488Z,13.20
2023-03-12T21:29:42.201Z,11.33
2023-03-12T21:32:09.921Z,11.63
2023-03-12T21:34:38.276Z,9.80
2023-03-12T21:37:07.382Z,12.80
2023-03-12T21:39:35.565Z,13.63
2023-03-12T21:42:03.300Z,11.93
2023-03-12T21:44:31.112Z,15.27
2023-03-12T21:46:58.885Z,12.63
2023-03-12T21:49:26.646Z,11.80
2023-03-12T21:51:54.493Z,18.30
2023-03-12T21:54:23.605Z,14.10
2023-03-12T21:56:51.355Z,16.50
2023-03-12T21:59:19.097Z,19.30
2023-03-12T22:01:46.969Z,14.37
2023-03-12T22:04:14.748Z,16.67
2023-03-12T22:06:42.842Z,19.43
2023-03-12T22:09:10.633Z,17.63
2023-03-12T22:11:40.097Z,19.80
2023-03-12T22:14:08.092Z,22.07
2023-03-12T22:16:35.854Z,20.40
2023-03-12T22:19:03.570Z,25.03
2023-03-12T22:21:31.418Z,18.03
2023-03-12T22:23:59.133Z,22.50
2023-03-12T22:26:26.926Z,28.87
2023-03-12T22:28:57.944Z,20.87
2023-03-12T22:31:27.264Z,18.57
2023-03-12T22:33:55.484Z,23.93
2023-03-12T22:36:23.992Z,27.00
2023-03-12T22:38:52.305Z,31.20
2023-03-12T22:41:22.352Z,25.77
2023-03-12T22:43:51.414Z,28.33
2023-03-12T22:46:22.490Z,31.67
2023-03-12T22:48:54.405Z,32.07
2023-03-12T22:51:22.467Z,33.13
2023-03-12T22:53:50.199Z,30.00
2023-03-12T22:56:17.978Z,26.37
2023-03-12T22:58:45.699Z,32.83
2023-03-12T23:01:15.555Z,41.33
2023-03-12T23:03:46.409Z,37.70
2023-03-12T23:06:16.490Z,38.50
2023-03-12T23:08:47.127Z,35.17
2023-03-12T23:11:15.789Z,39.20
2023-03-12T23:13:45.512Z,39.17
2023-03-12T23:16:15.273Z,38.43
2023-03-12T23:18:44.885Z,47.97
2023-03-12T23:21:15.208Z,37.03
2023-03-12T23:23:43.964Z,44.10
2023-03-12T23:26:14.914Z,43.37
2023-03-12T23:28:43.108Z,43.80
2023-03-12T23:31:11.363Z,41.57
2023-03-12T23:33:39.645Z,50.03
2023-03-12T23:36:11.690Z,44.37
2023-03-12T23:38:39.502Z,44.40
2023-03-12T23:41:10.197Z,48.33
2023-03-12T23:43:37.910Z,54.40
2023-03-12T23:46:07.332Z,50.07
2023-03-12T23:48:36.970Z,43.07
2023-03-12T23:51:05.696Z,41.73
2023-03-12T23:53:35.090Z,54.43
2023-03-12T23:56:05.259Z,48.00
2023-03-12T23:58:33.566Z,50.83
